FR3227 / EI-EML 7700 Squawk Report (14th of November, 2019)

Aircraft B738 Reg No. EI-EML Age 9 years old
Model 737 Jet engines 2 First flight 13-05-10
Registered 20-05-10 Rollout 03-05-10 Delivered 25-05-10
Construction No. 38513 Line No. 3283 Series 8AS
ADSHEX 4CA854 Airline name Ryanair Owner N/A
Airfield based Dublin~Co Dublin~EI First tracked 2017-07-13 05:28:00

Flight history for EI-EML

Route Flight No Date Playback
Stansted (STN) - Turin-Caselle (TRN) FR464 2019-12-12 08:21:00
Bari (BRI) - Stansted (STN) FR1906 2019-12-12 06:54:00
Stansted (STN) - Bari (BRI) FR1905 2019-12-11 20:23:00
Katowice Airport (KTW) - Stansted (STN) FR8267 2019-12-11 17:05:00
Stansted (STN) - Katowice Airport (KTW) FR8266 2019-12-11 12:58:00
Barajas (MAD) - Stansted (STN) FR5993 2019-12-11 11:07:00
Palermo (PMO) - Barajas (MAD) FR9965 2019-12-10 21:26:00
Barajas (MAD) - Palermo (PMO) FR9966 2019-12-10 18:17:00
Bari (BRI) - Barajas (MAD) FR2761 2019-12-10 15:59:00
Barajas (MAD) - Bari (BRI) FR2760 2019-12-10 09:28:00
Sale (RBA) - Barajas (MAD) FR5353 2019-12-10 00:36:00
???? N/A 2019-12-09 23:13:00
Barajas (MAD) - Tille (BVA) FR5444 2019-12-09 18:52:00
Boryspil Intl (KBP) - Barajas (MAD) FR6421 2019-12-09 16:55:00
Barajas (MAD) - Boryspil Intl (KBP) FR6420 2019-12-09 09:31:00
Porto (OPO) - Barajas (MAD) FR5485 2019-12-09 05:43:00
Barajas (MAD) - Porto (OPO) FR5484 2019-12-08 22:24:00
Menara (RAK) - Barajas (MAD) FR7753 2019-12-08 18:09:00
???? FR761 2019-12-08 16:30:00
Ciampino (CIA) - Barajas (MAD) FR9673 2019-12-08 12:54:00
Time Lat Lon Altitude Heading Speed Vertical Rate
2019-11-14 16:44:40 GMT 55.951035 -3.363668 0 239 27 0
2019-11-14 16:42:15 GMT 55.952858 -3.364027 0 59 66 0
2019-11-14 16:42:08 GMT 55.951744 -3.367310 0 59 84 0
2019-11-14 16:41:50 GMT 55.946712 -3.382158 125 59 144 -192
2019-11-14 16:41:43 GMT 55.944077 -3.389865 225 58 146 -640
2019-11-14 16:41:29 GMT 55.938950 -3.405013 425 59 144 -896
2019-11-14 16:41:21 GMT 55.936707 -3.411588 525 58 141 -832
2019-11-14 16:41:17 GMT 55.935013 -3.416748 600 59 139 -832
2019-11-14 16:41:11 GMT 55.933212 -3.421898 675 58 138 -768
2019-11-14 16:41:05 GMT 55.931396 -3.427401 725 58 137 -704
2019-11-14 16:41:01 GMT 55.930046 -3.431253 775 58 137 -704
2019-11-14 16:40:55 GMT 55.928043 -3.437090 925 58 138 -704
2019-11-14 16:40:51 GMT 55.926682 -3.441051 900 58 138 -704
2019-11-14 16:40:45 GMT 55.924644 -3.446960 975 58 138 -704
2019-11-14 16:40:41 GMT 55.923248 -3.450994 1,000 58 139 -832
2019-11-14 16:40:37 GMT 55.921902 -3.455029 1,075 58 141 -896
2019-11-14 16:40:33 GMT 55.920689 -3.458548 1,125 58 141 -832
2019-11-14 16:40:30 GMT 55.919678 -3.461526 1,175 59 144 -896
2019-11-14 16:40:27 GMT 55.917206 -3.468767 1,250 58 148 -832
2019-11-14 16:40:24 GMT 55.917206 -3.468767 1,275 58 149 -768
2019-11-14 16:40:21 GMT 55.916359 -3.471336 1,300 59 151 -768
2019-11-14 16:40:15 GMT 55.914310 -3.477345 1,375 58 153 -704
2019-11-14 16:40:11 GMT 55.912636 -3.482237 1,450 58 155 -832
2019-11-14 16:40:06 GMT 55.911072 -3.486828 1,500 58 155 -832
2019-11-14 16:40:03 GMT 55.909752 -3.490734 1,550 58 156 -832
2019-11-14 16:40:00 GMT 55.908829 -3.493403 1,575 58 156 -832
2019-11-14 16:39:57 GMT 55.907375 -3.497686 1,625 58 156 -896
2019-11-14 16:39:53 GMT 55.904957 -3.504810 1,725 59 157 -896
2019-11-14 16:39:46 GMT 55.903465 -3.509274 1,800 58 157 -960
2019-11-14 16:39:43 GMT 55.902145 -3.512962 1,850 58 157 -896
2019-11-14 16:39:33 GMT 55.898296 -3.524380 1,975 58 162 -832
2019-11-14 16:39:30 GMT 55.897247 -3.527444 2,025 58 162 -960
2019-11-14 16:39:27 GMT 55.894180 -3.536266 2,100 58 165 -960
2019-11-14 16:39:23 GMT 55.894180 -3.536266 2,150 58 166 -960
2019-11-14 16:39:20 GMT 55.893364 -3.538628 2,175 58 168 -960
2019-11-14 16:39:15 GMT 55.890060 -3.548334 2,275 58 170 -960
2019-11-14 16:39:09 GMT 55.888893 -3.551846 2,350 58 173 -960
2019-11-14 16:39:06 GMT 55.887405 -3.556137 2,400 58 176 -896
2019-11-14 16:39:00 GMT 55.884937 -3.563433 2,600 59 179 -1088
2019-11-14 16:38:55 GMT 55.882782 -3.569891 2,575 59 179 -1088
2019-11-14 16:38:52 GMT 55.881592 -3.573553 2,600 59 180 -1088
2019-11-14 16:38:49 GMT 55.880539 -3.576716 2,675 60 182 -1024
2019-11-14 16:38:46 GMT 55.879070 -3.581200 2,750 60 184 -1024
2019-11-14 16:38:43 GMT 55.877243 -3.586870 2,825 60 184 -1024
2019-11-14 16:38:40 GMT 55.876419 -3.589354 2,850 59 185 -1024
2019-11-14 16:38:36 GMT 55.874790 -3.594418 2,900 59 187 -1088
2019-11-14 16:38:33 GMT 55.873032 -3.599937 2,975 59 187 -1024
2019-11-14 16:38:30 GMT 55.871841 -3.603432 3,025 59 186 -1088
2019-11-14 16:38:26 GMT 55.870041 -3.608837 3,125 58 184 -1216
2019-11-14 16:38:21 GMT 55.868458 -3.613300 3,175 57 182 -1152
2019-11-14 16:38:18 GMT 55.865433 -3.621368 3,300 54 177 -960
2019-11-14 16:38:12 GMT 55.864105 -3.624656 3,400 53 175 -832
2019-11-14 16:38:09 GMT 55.862591 -3.628321 3,375 52 172 -832
2019-11-14 16:38:05 GMT 55.860638 -3.632956 3,450 52 169 -896
2019-11-14 16:38:02 GMT 55.859207 -3.636225 3,525 51 167 -832
2019-11-14 16:37:59 GMT 55.857651 -3.639721 3,525 50 166 -896
2019-11-14 16:37:55 GMT 55.855637 -3.643965 3,600 47 167 -960
2019-11-14 16:37:52 GMT 55.854118 -3.647032 3,625 45 167 -896
2019-11-14 16:37:49 GMT 55.852661 -3.649625 3,675 43 169 -768
2019-11-14 16:37:45 GMT 55.850327 -3.653620 3,750 41 170 -960
2019-11-14 16:37:42 GMT 55.848438 -3.656559 3,775 41 171 -1024
2019-11-14 16:37:38 GMT 55.846626 -3.659391 3,825 40 172 -832
2019-11-14 16:37:34 GMT 55.843552 -3.663857 3,900 32 174 -896
2019-11-14 16:37:31 GMT 55.841995 -3.665605 3,925 27 174 -1024
2019-11-14 16:37:28 GMT 55.839890 -3.667436 3,975 24 175 -960
2019-11-14 16:37:24 GMT 55.836548 -3.670099 4,050 23 172 -832
2019-11-14 16:37:21 GMT 55.834396 -3.671847 4,075 24 171 -832
2019-11-14 16:37:18 GMT 55.832474 -3.673382 4,125 23 170 -896
2019-11-14 16:37:14 GMT 55.827209 -3.677174 4,250 20 171 -1280
2019-11-14 16:37:08 GMT 55.824978 -3.678446 4,300 15 171 -1280
2019-11-14 16:37:04 GMT 55.821854 -3.679421 4,625 359 175 -1152
2019-11-14 16:37:01 GMT 55.819530 -3.679476 4,500 350 177 -1152
2019-11-14 16:36:58 GMT 55.816956 -3.678839 4,525 348 178 -1216
2019-11-14 16:36:55 GMT 55.814133 -3.677330 4,550 343 179 -1216
2019-11-14 16:36:52 GMT 55.809631 -3.672929 4,700 322 189 -1280
2019-11-14 16:36:49 GMT 55.807941 -3.670292 4,725 320 190 -1280
2019-11-14 16:36:43 GMT 55.804321 -3.662359 4,875 307 195 -1280
2019-11-14 16:36:40 GMT 55.804321 -3.662359 4,900 297 200 -1280
2019-11-14 16:36:36 GMT 55.802811 -3.657032 4,975 290 205 -1280
2019-11-14 16:36:33 GMT 55.801933 -3.652611 5,050 286 207 -1152
2019-11-14 16:36:30 GMT 55.801208 -3.646629 5,100 279 212 -768
2019-11-14 16:36:27 GMT 55.800980 -3.643299 5,125 273 218 -448
2019-11-14 16:36:23 GMT 55.800842 -3.634810 5,150 269 223 -576
2019-11-14 16:36:20 GMT 55.800957 -3.629436 5,175 268 226 -512
2019-11-14 16:36:17 GMT 55.801025 -3.624573 5,200 269 228 -512
2019-11-14 16:36:14 GMT 55.801254 -3.612504 5,250 269 233 -512
2019-11-14 16:36:08 GMT 55.801392 -3.605596 5,275 269 236 -448
2019-11-14 16:36:03 GMT 55.801575 -3.596774 5,300 269 241 -384
2019-11-14 16:36:00 GMT 55.801712 -3.586121 5,325 269 244 -384
2019-11-14 16:35:57 GMT 55.801849 -3.575967 5,350 269 247 -448
2019-11-14 16:35:53 GMT 55.801849 -3.575967 5,375 269 249 -704
2019-11-14 16:35:49 GMT 55.802032 -3.563565 5,475 269 252 -1024
2019-11-14 16:35:43 GMT 55.802124 -3.551331 5,600 270 252 -1600
2019-11-14 16:35:37 GMT 55.802307 -3.536310 5,775 269 251 -1920
2019-11-14 16:35:33 GMT 55.802307 -3.536310 5,850 269 251 -1792
2019-11-14 16:35:30 GMT 55.802399 -3.526528 5,950 270 251 -1408
2019-11-14 16:35:27 GMT 55.802399 -3.523436 6,000 270 252 -1024
2019-11-14 16:35:22 GMT 55.802490 -3.513045 6,075 270 253 -768
2019-11-14 16:35:19 GMT 55.802540 -3.507471 6,150 270 280 -1024
2019-11-14 16:35:16 GMT 55.802628 -3.500477 6,150 270 255 -768
2019-11-14 16:35:12 GMT 55.802673 -3.492570 6,175 269 256 -512
2019-11-14 16:35:09 GMT 55.802773 -3.485327 6,200 269 258 -320
2019-11-14 16:35:06 GMT 55.802856 -3.477839 6,475 270 280 -1024
2019-11-14 16:35:03 GMT 55.802948 -3.467019 6,325 269 260 -1152
2019-11-14 16:35:00 GMT 55.803085 -3.457947 6,375 269 262 -896
2019-11-14 16:34:56 GMT 55.803085 -3.457947 6,400 269 264 -768
2019-11-14 16:34:52 GMT 55.803223 -3.442633 6,475 270 268 -832
2019-11-14 16:34:49 GMT 55.803284 -3.432798 6,525 270 270 -896
2019-11-14 16:34:44 GMT 55.803284 -3.432798 6,575 270 272 -960
2019-11-14 16:34:41 GMT 55.803379 -3.419409 6,675 270 276 -1024
2019-11-14 16:34:35 GMT 55.803406 -3.410589 6,725 270 279 -1024
2019-11-14 16:34:32 GMT 55.803425 -3.403530 6,800 270 282 -1088
2019-11-14 16:34:25 GMT 55.803425 -3.389797 6,900 271 285 -1216
2019-11-14 16:34:22 GMT 55.803406 -3.382124 6,950 271 287 -1472
2019-11-14 16:34:19 GMT 55.803406 -3.374218 7,025 270 288 -1536
2019-11-14 16:34:16 GMT 55.803406 -3.367559 7,125 269 290 -1600
2019-11-14 16:34:13 GMT 55.803864 -3.352411 7,225 265 292 -1600
2019-11-14 16:34:10 GMT 55.803864 -3.352411 7,300 262 293 -1728
2019-11-14 16:34:06 GMT 55.804867 -3.342505 7,425 254 295 -1856
2019-11-14 16:34:02 GMT 55.806313 -3.333836 7,525 248 297 -1600
2019-11-14 16:33:59 GMT 55.808075 -3.325611 7,625 248 297 -1664
2019-11-14 16:33:55 GMT 55.809677 -3.318537 7,700 248 297 -1600
2019-11-14 16:33:51 GMT 55.811989 -3.308601 7,875 248 298 -1536
2019-11-14 16:33:48 GMT 55.815620 -3.292980 7,950 248 298 -1536
2019-11-14 16:33:44 GMT 55.815620 -3.292980 8,000 248 298 -1472
2019-11-14 16:33:41 GMT 55.817158 -3.286285 8,050 248 299 -1408
2019-11-14 16:33:38 GMT 55.818695 -3.279676 8,350 248 300 -1280
2019-11-14 16:33:34 GMT 55.820938 -3.270180 8,225 248 301 -1280
2019-11-14 16:33:31 GMT 55.822556 -3.263283 8,275 248 302 -1344
2019-11-14 16:33:28 GMT 55.824188 -3.256330 8,425 248 302 -1600
2019-11-14 16:33:25 GMT 55.825699 -3.249872 8,425 248 302 -1664
2019-11-14 16:33:21 GMT 55.827770 -3.241053 8,575 248 302 -1664
2019-11-14 16:33:18 GMT 55.829590 -3.233310 8,600 248 302 -1664
2019-11-14 16:33:14 GMT 55.833527 -3.216747 9,075 248 302 -1600
2019-11-14 16:33:08 GMT 55.835220 -3.209589 8,875 248 302 -1600
2019-11-14 16:33:04 GMT 55.837372 -3.200434 9,050 248 302 -1664
2019-11-14 16:33:00 GMT 55.839706 -3.190613 9,100 248 302 -1664
2019-11-14 16:32:57 GMT 55.840618 -3.186808 9,200 248 301 -1600
2019-11-14 16:32:53 GMT 55.843048 -3.176464 9,300 248 302 -1472
2019-11-14 16:32:50 GMT 55.846069 -3.163730 9,400 248 302 -1408
2019-11-14 16:32:47 GMT 55.847809 -3.156655 9,500 247 303 -1344
2019-11-14 16:32:41 GMT 55.849136 -3.150995 9,550 247 304 -1344
2019-11-14 16:32:38 GMT 55.851746 -3.140116 9,675 248 307 -1280
2019-11-14 16:32:33 GMT 55.853943 -3.131020 9,725 247 306 -1216
2019-11-14 16:32:30 GMT 55.855747 -3.123550 9,850 248 307 -1280
2019-11-14 16:32:27 GMT 55.857468 -3.116289 9,825 248 307 -1344
2019-11-14 16:32:24 GMT 55.861240 -3.100376 9,950 248 312 -512
2019-11-14 16:32:20 GMT 55.861240 -3.100376 9,975 248 314 -448
2019-11-14 16:32:17 GMT 55.862919 -3.093252 10,025 248 328 -512
2019-11-14 16:32:12 GMT 55.865707 -3.081499 10,025 248 322 -448
2019-11-14 16:32:09 GMT 55.867481 -3.073854 10,050 248 324 -512
2019-11-14 16:32:03 GMT 55.870880 -3.059526 10,075 248 328 -512
2019-11-14 16:32:00 GMT 55.874725 -3.042963 10,125 248 334 -512
2019-11-14 16:31:57 GMT 55.874725 -3.042963 10,150 248 337 -448
2019-11-14 16:31:54 GMT 55.876465 -3.035473 10,175 248 338 -448
2019-11-14 16:31:50 GMT 55.879025 -3.024673 10,200 248 342 -512
2019-11-14 16:31:47 GMT 55.880539 -3.018078 10,225 248 346 -576
2019-11-14 16:31:44 GMT 55.882370 -3.010337 10,250 248 348 -640
2019-11-14 16:31:41 GMT 55.884201 -3.002347 10,300 248 351 -704
2019-11-14 16:31:38 GMT 55.885803 -2.995356 10,325 248 354 -768
2019-11-14 16:31:35 GMT 55.888092 -2.985451 10,375 248 356 -832
2019-11-14 16:31:31 GMT 55.890518 -2.975048 10,475 248 359 -640
2019-11-14 16:31:28 GMT 55.892258 -2.967557 10,475 248 359 -384
2019-11-14 16:31:24 GMT 55.894958 -2.955988 10,500 248 359 -64
2019-11-14 16:31:21 GMT 55.896240 -2.950328 10,500 248 359 -128
2019-11-14 16:31:18 GMT 55.898483 -2.940645 10,500 248 359 -128
2019-11-14 16:31:14 GMT 55.901093 -2.929230 10,525 248 359 -128
2019-11-14 16:31:10 GMT 55.905533 -2.909712 10,525 248 362 -128
2019-11-14 16:31:07 GMT 55.907730 -2.900141 10,525 249 363 -128
2019-11-14 16:31:04 GMT 55.909561 -2.891979 10,500 249 368 -128
2019-11-14 16:31:01 GMT 55.909561 -2.891979 10,525 249 372 -384
2019-11-14 16:30:58 GMT 55.913727 -2.873424 10,550 249 376 -768
2019-11-14 16:30:54 GMT 55.913727 -2.873424 10,575 249 379 -1536
2019-11-14 16:30:51 GMT 55.915604 -2.865018 10,575 249 379 -1536
2019-11-14 16:30:48 GMT 55.917477 -2.856531 10,725 249 381 -2176
2019-11-14 16:30:45 GMT 55.919449 -2.847789 10,900 249 382 -3200
2019-11-14 16:30:41 GMT 55.922085 -2.835760 11,075 249 381 -3328
2019-11-14 16:30:38 GMT 55.924366 -2.825289 11,225 250 384 -2880
2019-11-14 16:30:35 GMT 55.926228 -2.816534 12,200 250 382 -3072
2019-11-14 16:30:32 GMT 55.928139 -2.807779 11,575 250 382 -2816
2019-11-14 16:30:28 GMT 55.930466 -2.796707 11,600 250 383 -2816
2019-11-14 16:30:25 GMT 55.932083 -2.789112 11,825 250 384 -2880
2019-11-14 16:30:21 GMT 55.934692 -2.776711 12,025 250 384 -2944
2019-11-14 16:30:18 GMT 55.937031 -2.765636 12,200 250 385 -3008
2019-11-14 16:30:15 GMT 55.938614 -2.758083 12,325 250 385 -3008
2019-11-14 16:30:12 GMT 55.940918 -2.746832 12,525 250 385 -3008
2019-11-14 16:30:09 GMT 55.941833 -2.742337 12,650 251 385 -3008
2019-11-14 16:30:06 GMT 55.944057 -2.731390 13,150 251 387 -2880
2019-11-14 16:30:03 GMT 55.945686 -2.723408 12,925 251 386 -2944
2019-11-14 16:30:00 GMT 55.947418 -2.714788 13,000 251 386 -2944
2019-11-14 16:29:57 GMT 55.952297 -2.690363 13,650 251 389 -2816
2019-11-14 16:29:53 GMT 55.952297 -2.690363 13,450 251 389 -2816
2019-11-14 16:29:50 GMT 55.953552 -2.684243 13,625 250 389 -2944
2019-11-14 16:29:47 GMT 55.955429 -2.675004 13,750 250 390 -3008
2019-11-14 16:29:44 GMT 55.957260 -2.666099 13,875 250 390 -3072
2019-11-14 16:29:41 GMT 55.959187 -2.656889 14,000 250 390 -3072
2019-11-14 16:29:38 GMT 55.961189 -2.647362 14,125 250 390 -3072
2019-11-14 16:29:35 GMT 55.964722 -2.630643 14,425 250 391 -3008
2019-11-14 16:29:27 GMT 55.968266 -2.613459 14,650 250 393 -3008
2019-11-14 16:29:23 GMT 55.970535 -2.602428 14,850 250 393 -3072
2019-11-14 16:29:19 GMT 55.972969 -2.590542 15,175 251 394 -3072
2019-11-14 16:29:16 GMT 55.974876 -2.581186 16,225 250 395 -3456
2019-11-14 16:29:12 GMT 55.977036 -2.570551 15,425 251 395 -3136
2019-11-14 16:29:09 GMT 55.979298 -2.559214 15,625 251 395 -3264
2019-11-14 16:29:06 GMT 55.981209 -2.550030 15,750 250 395 -3456
2019-11-14 16:29:03 GMT 55.982651 -2.542906 16,125 250 395 -3264
2019-11-14 16:29:00 GMT 55.984543 -2.533680 16,100 250 395 -3328
2019-11-14 16:28:57 GMT 55.986740 -2.522944 16,475 250 396 -2368
2019-11-14 16:28:50 GMT 55.991592 -2.499223 16,550 251 396 -1536
2019-11-14 16:28:47 GMT 55.992828 -2.492981 16,600 251 396 -1280
2019-11-14 16:28:44 GMT 55.994980 -2.482577 16,675 251 396 -1600
2019-11-14 16:28:40 GMT 55.999271 -2.461452 17,100 252 398 -2688
2019-11-14 16:28:37 GMT 56.001205 -2.451865 17,000 250 397 -2944
2019-11-14 16:28:34 GMT 56.003128 -2.442544 17,225 251 397 -2880
2019-11-14 16:28:28 GMT 56.006718 -2.424116 17,375 252 398 -2688
2019-11-14 16:28:25 GMT 56.006718 -2.424116 17,450 254 399 -2560
2019-11-14 16:28:22 GMT 56.008209 -2.415104 17,600 255 400 -2368
2019-11-14 16:28:19 GMT 56.009743 -2.404461 17,850 258 403 -2880
2019-11-14 16:28:15 GMT 56.011139 -2.393438 18,025 258 402 -2624
2019-11-14 16:28:10 GMT 56.013382 -2.375627 18,125 258 403 -3072
2019-11-14 16:28:07 GMT 56.014526 -2.366555 18,225 258 403 -3008
2019-11-14 16:28:04 GMT 56.015751 -2.356739 18,425 258 403 -2816
2019-11-14 16:28:01 GMT 56.016682 -2.349272 18,625 258 404 -2816
2019-11-14 16:27:57 GMT 56.019882 -2.323941 18,800 258 405 -2880
2019-11-14 16:27:50 GMT 56.021484 -2.311041 19,075 258 407 -2560
2019-11-14 16:27:44 GMT 56.025696 -2.276417 19,350 258 411 -1280
2019-11-14 16:27:40 GMT 56.025696 -2.276417 19,400 258 412 -1152
2019-11-14 16:27:36 GMT 56.027016 -2.265930 19,500 258 413 -1088
2019-11-14 16:27:33 GMT 56.028225 -2.256060 19,525 258 413 -1024
2019-11-14 16:27:30 GMT 56.030594 -2.236717 19,625 258 414 -1088
2019-11-14 16:27:24 GMT 56.032104 -2.224232 19,675 258 415 -1024
2019-11-14 16:27:19 GMT 56.033936 -2.209251 19,750 258 415 -1024
2019-11-14 16:27:16 GMT 56.035355 -2.197682 19,875 258 415 -960
2019-11-14 16:27:13 GMT 56.036545 -2.188027 19,875 258 415 -960
2019-11-14 16:27:09 GMT 56.039352 -2.164736 20,300 258 413 -1024
2019-11-14 16:27:06 GMT 56.040653 -2.154007 20,000 258 414 -960
2019-11-14 16:27:03 GMT 56.042267 -2.140586 20,075 258 413 -960
2019-11-14 16:26:59 GMT 56.042267 -2.140586 20,125 258 413 -960
2019-11-14 16:26:56 GMT 56.043354 -2.131691 20,200 258 413 -1024
2019-11-14 16:26:53 GMT 56.044418 -2.122858 20,200 258 413 -1024
2019-11-14 16:26:49 GMT 56.047359 -2.098303 20,300 258 413 -1024
2019-11-14 16:26:43 GMT 56.049545 -2.080078 20,425 258 412 -1024
2019-11-14 16:26:37 GMT 56.050735 -2.070007 20,500 258 412 -960
2019-11-14 16:26:34 GMT 56.052109 -2.058522 20,525 258 412 -960
2019-11-14 16:26:31 GMT 56.053482 -2.046869 21,250 258 422 -1600
2019-11-14 16:26:27 GMT 56.056091 -2.024897 20,750 258 412 -1984
2019-11-14 16:26:20 GMT 56.057510 -2.013161 20,900 258 414 -2240
2019-11-14 16:26:17 GMT 56.059982 -1.992354 21,050 258 417 -1536
2019-11-14 16:26:11 GMT 56.061558 -1.979599 21,250 258 422 -1600
2019-11-14 16:26:06 GMT 56.065155 -1.950073 21,275 258 422 -1600
2019-11-14 16:26:03 GMT 56.065750 -1.944996 21,350 258 424 -2048
2019-11-14 16:25:57 GMT 56.068176 -1.925354 24,825 258 431 -2560
2019-11-14 16:25:51 GMT 56.069378 -1.915140 21,900 258 425 -3776
2019-11-14 16:25:47 GMT 56.071285 -1.899433 22,175 258 424 -3840
2019-11-14 16:25:44 GMT 56.072525 -1.889232 22,350 258 424 -3968
2019-11-14 16:25:40 GMT 56.075638 -1.863598 22,850 258 424 -3968
2019-11-14 16:25:36 GMT 56.075638 -1.863598 22,825 258 424 -3648
2019-11-14 16:25:33 GMT 56.077339 -1.849566 23,025 258 424 -3328
2019-11-14 16:25:30 GMT 56.078384 -1.840959 23,200 258 425 -3264
2019-11-14 16:25:26 GMT 56.080036 -1.827593 23,300 258 425 -3648
2019-11-14 16:25:23 GMT 56.081341 -1.816607 23,625 258 424 -3968
2019-11-14 16:25:20 GMT 56.082321 -1.808666 23,750 258 424 -3968
2019-11-14 16:25:17 GMT 56.083832 -1.796514 23,950 258 424 -3776
2019-11-14 16:25:14 GMT 56.087036 -1.770131 24,275 258 428 -3200
2019-11-14 16:25:10 GMT 56.087036 -1.770131 24,400 258 427 -2880
2019-11-14 16:25:06 GMT 56.090149 -1.744496 24,675 258 428 -3328
2019-11-14 16:25:02 GMT 56.090149 -1.744496 24,975 258 434 -3008
2019-11-14 16:24:59 GMT 56.091118 -1.736441 25,000 258 431 -2624
2019-11-14 16:24:55 GMT 56.093353 -1.717696 25,150 259 433 -2624
2019-11-14 16:24:52 GMT 56.094330 -1.709404 25,300 259 434 -2944
2019-11-14 16:24:48 GMT 56.096237 -1.693268 25,500 258 435 -3008
2019-11-14 16:24:45 GMT 56.097031 -1.686659 25,575 258 435 -2944
2019-11-14 16:24:42 GMT 56.098526 -1.674167 25,825 258 441 -2816
2019-11-14 16:24:39 GMT 56.099590 -1.665287 25,875 258 439 -2496
2019-11-14 16:24:36 GMT 56.101273 -1.651112 26,000 258 440 -2688
2019-11-14 16:24:32 GMT 56.104019 -1.627974 26,225 259 442 -3328
2019-11-14 16:24:29 GMT 56.105530 -1.615073 26,425 259 443 -3392
2019-11-14 16:24:25 GMT 56.106995 -1.602256 26,600 259 443 -3456
2019-11-14 16:24:22 GMT 56.108185 -1.592185 26,850 259 444 -3584
2019-11-14 16:24:19 GMT 56.108185 -1.592185 26,900 259 444 -3584
2019-11-14 16:24:16 GMT 56.109272 -1.582632 27,050 259 445 -3520
2019-11-14 16:24:13 GMT 56.110931 -1.568631 27,325 259 445 -3392
2019-11-14 16:24:10 GMT 56.111664 -1.561973 27,400 259 446 -3392
2019-11-14 16:24:07 GMT 56.113136 -1.549416 27,650 259 447 -3392
2019-11-14 16:24:04 GMT 56.114532 -1.537142 27,775 259 447 -3456
2019-11-14 16:24:01 GMT 56.115463 -1.529180 28,425 259 449 -3072
2019-11-14 16:23:58 GMT 56.116859 -1.517315 28,050 259 448 -3392
2019-11-14 16:23:54 GMT 56.118584 -1.502209 28,325 259 449 -3136
2019-11-14 16:23:51 GMT 56.121552 -1.476496 30,500 259 456 -2880
2019-11-14 16:23:47 GMT 56.121552 -1.476496 28,675 259 451 -3264
2019-11-14 16:23:44 GMT 56.123062 -1.463346 28,825 259 452 -3200
2019-11-14 16:23:41 GMT 56.124115 -1.454107 29,000 259 453 -2944
2019-11-14 16:23:37 GMT 56.125534 -1.441872 29,100 259 454 -2944
2019-11-14 16:23:34 GMT 56.127193 -1.427536 29,400 259 454 -3520
2019-11-14 16:23:31 GMT 56.128326 -1.417569 29,525 259 454 -3584
2019-11-14 16:23:27 GMT 56.130268 -1.400585 29,800 259 455 -3328
2019-11-14 16:23:24 GMT 56.131119 -1.392933 29,875 259 455 -3264
2019-11-14 16:23:21 GMT 56.132584 -1.380449 34,875 259 455 -3264
2019-11-14 16:23:18 GMT 56.133545 -1.371876 30,300 259 455 -3456
2019-11-14 16:23:15 GMT 56.135422 -1.355979 30,475 259 456 -3392
2019-11-14 16:23:11 GMT 56.138077 -1.333174 30,725 259 457 -2688
2019-11-14 16:23:04 GMT 56.139587 -1.320024 31,000 259 459 -3008
2019-11-14 16:23:01 GMT 56.140961 -1.308122 31,125 259 459 -3200
2019-11-14 16:22:58 GMT 56.142277 -1.296730 31,325 259 459 -3520
2019-11-14 16:22:54 GMT 56.143936 -1.282404 31,425 259 459 -3520
2019-11-14 16:22:51 GMT 56.146889 -1.256390 31,825 259 460 -2240
2019-11-14 16:22:47 GMT 56.148376 -1.243515 31,875 259 461 -2048
2019-11-14 16:22:44 GMT 56.148376 -1.243515 32,100 259 464 -1728
2019-11-14 16:22:41 GMT 56.149841 -1.230968 32,075 259 465 -1792
2019-11-14 16:22:38 GMT 56.150940 -1.221147 32,125 259 466 -2112
2019-11-14 16:22:35 GMT 56.151947 -1.212325 32,225 259 467 -2560
2019-11-14 16:22:32 GMT 56.153728 -1.196394 32,450 259 466 -3648
2019-11-14 16:22:29 GMT 56.155014 -1.185109 32,500 259 466 -3776
2019-11-14 16:22:26 GMT 56.156067 -1.175787 32,775 259 466 -3648
2019-11-14 16:22:23 GMT 56.157547 -1.162491 33,000 259 464 -3328
2019-11-14 16:22:19 GMT 56.158768 -1.151733 33,200 259 464 -3328
2019-11-14 16:22:16 GMT 56.160572 -1.135626 33,375 259 465 -3328
2019-11-14 16:22:12 GMT 56.161880 -1.124018 33,600 259 464 -3456
2019-11-14 16:22:09 GMT 56.163364 -1.110649 33,775 259 463 -3456
2019-11-14 16:22:05 GMT 56.164856 -1.097260 34,125 259 462 -3520
2019-11-14 16:22:02 GMT 56.166206 -1.085672 34,175 259 462 -3520
2019-11-14 16:21:59 GMT 56.167282 -1.075911 34,275 259 459 -3264
2019-11-14 16:21:56 GMT 56.169800 -1.053356 34,650 259 459 -3264
2019-11-14 16:21:50 GMT 56.172363 -1.029968 34,825 259 459 -2496
2019-11-14 16:21:47 GMT 56.173370 -1.020647 35,025 259 459 -2240
2019-11-14 16:21:41 GMT 56.174881 -1.007163 35,325 260 460 -1472
2019-11-14 16:21:38 GMT 56.176300 -0.993930 35,600 259 457 -896
2019-11-14 16:21:35 GMT 56.177353 -0.984192 35,375 260 460 -960
2019-11-14 16:21:32 GMT 56.178406 -0.974454 35,950 260 460 -960
2019-11-14 16:21:29 GMT 56.179504 -0.963967 35,450 260 460 -960
2019-11-14 16:21:26 GMT 56.180916 -0.951176 35,475 260 459 -960
2019-11-14 16:21:23 GMT 56.182022 -0.940496 35,600 259 455 -896
2019-11-14 16:21:20 GMT 56.183430 -0.928001 35,600 259 458 -960
2019-11-14 16:21:17 GMT 56.184631 -0.916859 35,625 259 448 -832
2019-11-14 16:21:13 GMT 56.186188 -0.903043 35,725 259 457 -896
2019-11-14 16:21:10 GMT 56.187469 -0.891307 35,825 259 455 -896
2019-11-14 16:21:05 GMT 56.190598 -0.863285 35,875 259 454 -896
2019-11-14 16:20:59 GMT 56.191811 -0.852642 35,900 259 452 -896
2019-11-14 16:20:56 GMT 56.193111 -0.840883 36,375 259 449 -896
2019-11-14 16:20:52 GMT 56.195160 -0.822809 36,050 259 450 -960
2019-11-14 16:20:49 GMT 56.197254 -0.804319 36,100 259 449 -896
2019-11-14 16:20:46 GMT 56.197254 -0.804319 36,200 259 449 -896
2019-11-14 16:20:42 GMT 56.198776 -0.791016 36,225 259 448 -832
2019-11-14 16:20:39 GMT 56.200096 -0.779686 36,275 259 447 -896
2019-11-14 16:20:34 GMT 56.202049 -0.762520 36,300 259 447 -896
2019-11-14 16:20:31 GMT 56.203495 -0.749474 36,350 259 447 -896
2019-11-14 16:20:28 GMT 56.204498 -0.740495 36,375 259 448 -896
2019-11-14 16:20:25 GMT 56.206287 -0.724669 36,450 259 449 -896
2019-11-14 16:20:22 GMT 56.207127 -0.717545 36,550 259 449 -960
2019-11-14 16:20:19 GMT 56.209595 -0.695314 36,525 259 451 -1024
2019-11-14 16:20:16 GMT 56.209595 -0.695314 36,725 259 458 64
2019-11-14 16:20:12 GMT 56.211174 -0.680895 36,700 259 454 -1216
2019-11-14 16:20:09 GMT 56.212509 -0.668501 36,675 259 454 -1216
2019-11-14 16:20:04 GMT 56.214386 -0.651106 36,800 260 456 -1216
2019-11-14 16:20:01 GMT 56.215645 -0.639696 36,850 260 457 -1024
2019-11-14 16:19:58 GMT 56.216629 -0.630382 36,900 259 457 -1024
2019-11-14 16:19:54 GMT 56.219463 -0.604420 36,975 259 458 -384
2019-11-14 16:19:48 GMT 56.222580 -0.575666 37,000 259 458 64
2019-11-14 16:19:44 GMT 56.222580 -0.575666 37,000 259 458 64
2019-11-14 16:19:41 GMT 56.223606 -0.566311 37,000 259 458 64
2019-11-14 16:19:38 GMT 56.224777 -0.555642 37,000 259 459 64
2019-11-14 16:19:34 GMT 56.226585 -0.539274 37,000 259 458 0
2019-11-14 16:19:31 GMT 56.227982 -0.526314 37,000 259 459 -64
2019-11-14 16:19:28 GMT 56.228851 -0.518438 37,000 259 458 -64
2019-11-14 16:19:25 GMT 56.230316 -0.504955 37,000 259 458 -64
2019-11-14 16:19:22 GMT 56.231598 -0.493136 37,000 259 458 0
2019-11-14 16:19:19 GMT 56.233009 -0.480394 37,000 259 458 0
2019-11-14 16:19:14 GMT 56.234730 -0.464602 37,000 259 458 0
2019-11-14 16:19:11 GMT 56.236965 -0.444088 37,000 259 458 0
2019-11-14 16:19:08 GMT 56.238373 -0.431130 37,000 259 458 64
2019-11-14 16:19:05 GMT 56.239929 -0.416731 37,000 260 458 -64
2019-11-14 16:19:02 GMT 56.239929 -0.416731 37,000 260 458 0
2019-11-14 16:18:58 GMT 56.241165 -0.405162 37,000 260 458 0
2019-11-14 16:18:55 GMT 56.244087 -0.377998 37,000 260 459 -64
2019-11-14 16:18:51 GMT 56.244087 -0.377998 37,000 260 459 0
2019-11-14 16:18:48 GMT 56.245113 -0.368214 37,000 260 458 0
2019-11-14 16:18:44 GMT 56.246929 -0.351133 37,000 260 458 0
2019-11-14 16:18:41 GMT 56.247849 -0.342657 37,000 260 458 64
2019-11-14 16:18:38 GMT 56.251053 -0.312112 37,000 260 457 64
2019-11-14 16:18:33 GMT 56.251053 -0.312112 37,000 260 457 0
2019-11-14 16:18:30 GMT 56.252048 -0.302811 37,000 260 457 0
2019-11-14 16:18:27 GMT 56.253353 -0.289936 37,000 260 457 0
2019-11-14 16:18:23 GMT 56.255081 -0.273493 37,000 260 457 0
2019-11-14 16:18:20 GMT 56.256088 -0.263838 37,000 260 457 -64
2019-11-14 16:18:17 GMT 56.257507 -0.250105 37,000 260 457 -64
2019-11-14 16:18:13 GMT 56.259029 -0.235605 37,000 260 456 0
2019-11-14 16:18:10 GMT 56.259933 -0.227300 37,000 260 457 0
2019-11-14 16:18:07 GMT 56.261261 -0.214483 37,000 260 456 0
2019-11-14 16:18:04 GMT 56.262615 -0.201445 37,000 260 456 0
2019-11-14 16:18:00 GMT 56.265083 -0.178185 37,000 260 457 64
2019-11-14 16:17:53 GMT 56.266758 -0.162649 37,000 260 457 64
2019-11-14 16:17:50 GMT 56.267876 -0.151834 37,000 260 456 0
2019-11-14 16:17:47 GMT 56.269180 -0.139647 37,000 260 456 -64
2019-11-14 16:17:43 GMT 56.270737 -0.125011 37,000 260 456 -64
2019-11-14 16:17:40 GMT 56.272385 -0.109281 37,000 260 456 -64
2019-11-14 16:17:37 GMT 56.273090 -0.102396 37,000 260 456 0
2019-11-14 16:17:34 GMT 56.274078 -0.092801 37,000 260 456 0
2019-11-14 16:17:31 GMT 56.275177 -0.082647 37,000 260 456 0
2019-11-14 16:17:28 GMT 56.277878 -0.056596 37,000 260 456 0
2019-11-14 16:17:25 GMT 56.278954 -0.046520 37,000 260 456 0
2019-11-14 16:17:19 GMT 56.280167 -0.035019 37,000 260 456 0
2019-11-14 16:17:16 GMT 56.281082 -0.026217 37,000 260 456 0
2019-11-14 16:17:12 GMT 56.282635 -0.011244 37,000 260 456 0
2019-11-14 16:17:09 GMT 56.283920 0.001248 37,000 260 456 0
2019-11-14 16:17:06 GMT 56.286301 0.024303 37,000 260 456 0
2019-11-14 16:17:03 GMT 56.286301 0.024303 37,000 260 456 0
2019-11-14 16:17:00 GMT 56.287430 0.035019 37,000 260 456 0
2019-11-14 16:16:57 GMT 56.288776 0.048151 37,000 260 456 0
2019-11-14 16:16:52 GMT 56.290329 0.063171 37,000 260 456 0
2019-11-14 16:16:49 GMT 56.291702 0.076488 37,000 260 456 64
2019-11-14 16:16:46 GMT 56.292595 0.085487 37,000 260 456 0
2019-11-14 16:16:43 GMT 56.293945 0.098362 37,000 260 456 0
2019-11-14 16:16:40 GMT 56.296051 0.118935 37,000 260 456 0
2019-11-14 16:16:37 GMT 56.296051 0.118935 37,000 260 456 0
2019-11-14 16:16:34 GMT 56.297436 0.132351 37,000 260 456 0
2019-11-14 16:16:29 GMT 56.300308 0.160633 37,000 260 456 0
2019-11-14 16:16:26 GMT 56.301682 0.173950 37,000 260 456 64
2019-11-14 16:16:22 GMT 56.301682 0.173950 37,000 260 456 0
2019-11-14 16:16:19 GMT 56.302929 0.186338 37,000 260 456 64
2019-11-14 16:16:16 GMT 56.304092 0.197668 37,000 260 456 64
2019-11-14 16:16:12 GMT 56.305847 0.215232 37,000 260 456 0
2019-11-14 16:16:07 GMT 56.307724 0.233459 37,000 260 456 0
2019-11-14 16:16:04 GMT 56.308842 0.244617 37,000 260 456 0
2019-11-14 16:16:01 GMT 56.309830 0.254433 37,000 260 456 0
2019-11-14 16:15:57 GMT 56.311340 0.269331 37,000 260 456 0
2019-11-14 16:15:54 GMT 56.312565 0.281696 37,000 260 456 64
2019-11-14 16:15:51 GMT 56.313591 0.291824 37,000 260 456 0
2019-11-14 16:15:48 GMT 56.314682 0.302707 37,000 260 456 0
2019-11-14 16:15:45 GMT 56.315506 0.311196 37,000 260 456 0
2019-11-14 16:15:42 GMT 56.316971 0.325512 37,000 260 456 0
2019-11-14 16:15:39 GMT 56.318058 0.336714 37,000 260 456 0
2019-11-14 16:15:36 GMT 56.318897 0.344782 37,000 260 456 0
2019-11-14 16:15:33 GMT 56.320015 0.356026 37,000 260 456 0
2019-11-14 16:15:30 GMT 56.321133 0.367613 37,000 260 456 -64
2019-11-14 16:15:27 GMT 56.323971 0.396023 37,000 260 456 0
2019-11-14 16:15:21 GMT 56.326019 0.417051 37,000 260 456 0
2019-11-14 16:15:18 GMT 56.326904 0.425978 37,000 260 456 0
2019-11-14 16:15:12 GMT 56.328022 0.437050 37,000 260 456 0
2019-11-14 16:15:09 GMT 56.330395 0.460911 37,000 260 456 0
2019-11-14 16:15:06 GMT 56.330395 0.460911 37,000 260 456 0
2019-11-14 16:15:00 GMT 56.332302 0.480652 37,000 260 456 0
2019-11-14 16:14:56 GMT 56.333862 0.496216 37,000 260 456 0
2019-11-14 16:14:53 GMT 56.334820 0.505886 37,000 260 456 -64
2019-11-14 16:14:50 GMT 56.335922 0.517190 37,000 260 456 -64
2019-11-14 16:14:47 GMT 56.337250 0.530423 37,000 260 456 0
2019-11-14 16:14:43 GMT 56.338776 0.546312 37,000 260 456 0
2019-11-14 16:14:39 GMT 56.339996 0.558721 37,000 261 455 0
2019-11-14 16:14:36 GMT 56.341278 0.571705 37,000 260 456 0
2019-11-14 16:14:33 GMT 56.342499 0.584078 37,000 261 455 0
2019-11-14 16:14:30 GMT 56.344593 0.605278 37,000 261 455 0
2019-11-14 16:14:27 GMT 56.344593 0.605278 37,000 261 455 64
2019-11-14 16:14:23 GMT 56.346085 0.620561 37,000 261 456 64
2019-11-14 16:14:20 GMT 56.348503 0.645790 37,000 261 456 0
2019-11-14 16:14:13 GMT 56.349747 0.658847 37,000 261 455 0
2019-11-14 16:14:08 GMT 56.351437 0.676346 37,000 261 455 0
2019-11-14 16:14:05 GMT 56.352585 0.688310 37,000 261 455 0
2019-11-14 16:14:02 GMT 56.353672 0.699520 37,000 261 455 0
2019-11-14 16:13:58 GMT 56.356064 0.724848 37,000 261 455 0
2019-11-14 16:13:55 GMT 56.356064 0.724848 37,000 261 455 0
2019-11-14 16:13:51 GMT 56.357304 0.737629 37,000 261 455 0
2019-11-14 16:13:48 GMT 56.358673 0.752480 37,000 261 455 64
2019-11-14 16:13:44 GMT 56.359722 0.763378 37,000 261 455 0
2019-11-14 16:13:40 GMT 56.362839 0.795843 37,000 261 455 -64
2019-11-14 16:13:36 GMT 56.362839 0.795843 37,000 261 455 -64
2019-11-14 16:13:32 GMT 56.364349 0.811324 37,000 261 455 0
2019-11-14 16:13:28 GMT 56.366959 0.838706 37,000 261 454 128
2019-11-14 16:13:24 GMT 56.366959 0.838706 37,000 260 454 128
2019-11-14 16:13:20 GMT 56.369659 0.866172 37,000 260 454 0
2019-11-14 16:13:17 GMT 56.370758 0.877158 37,000 260 454 0
2019-11-14 16:13:14 GMT 56.370758 0.877158 37,000 259 454 -64
2019-11-14 16:13:10 GMT 56.372620 0.893841 37,000 259 454 -64
2019-11-14 16:13:06 GMT 56.374016 0.904999 37,000 257 454 -64
2019-11-14 16:13:03 GMT 56.377460 0.931005 37,000 257 454 0
2019-11-14 16:12:59 GMT 56.377460 0.931005 37,000 255 454 64
2019-11-14 16:12:56 GMT 56.379044 0.941828 37,000 254 454 64
2019-11-14 16:12:53 GMT 56.380764 0.952892 37,000 244 453 0
2019-11-14 16:12:50 GMT 56.383255 0.967213 37,000 252 454 0
2019-11-14 16:12:47 GMT 56.385139 0.977354 37,000 250 453 0
2019-11-14 16:12:44 GMT 56.386909 0.986195 37,000 250 452 -64
2019-11-14 16:12:40 GMT 56.389618 0.998840 37,000 248 453 -64
2019-11-14 16:12:37 GMT 56.392494 1.011257 37,000 246 452 -64
2019-11-14 16:12:34 GMT 56.395432 1.022727 37,000 244 452 0
2019-11-14 16:12:31 GMT 56.401611 1.045532 37,000 244 452 0
2019-11-14 16:12:27 GMT 56.401611 1.045532 37,000 244 452 0
2019-11-14 16:12:24 GMT 56.404633 1.056519 37,000 244 452 0
2019-11-14 16:12:20 GMT 56.407673 1.067562 37,000 244 452 0
2019-11-14 16:12:17 GMT 56.410446 1.077825 37,000 244 452 0
2019-11-14 16:12:14 GMT 56.418240 1.106186 37,000 244 452 0
2019-11-14 16:12:09 GMT 56.418240 1.106186 37,000 244 451 0
2019-11-14 16:12:05 GMT 56.422119 1.120356 37,000 244 451 0
2019-11-14 16:12:02 GMT 56.424294 1.128330 37,000 244 451 0
2019-11-14 16:11:59 GMT 56.430485 1.150818 37,000 244 451 0
2019-11-14 16:11:56 GMT 56.430485 1.150818 37,000 244 451 0
2019-11-14 16:11:53 GMT 56.432739 1.159141 37,000 244 451 0
2019-11-14 16:11:49 GMT 56.438690 1.180947 37,000 244 450 0
2019-11-14 16:11:43 GMT 56.442261 1.194014 37,000 244 451 0
2019-11-14 16:11:39 GMT 56.446381 1.208995 37,000 244 451 -64
2019-11-14 16:11:36 GMT 56.448730 1.217594 37,000 244 451 64
2019-11-14 16:11:33 GMT 56.451187 1.226557 37,000 244 451 0
2019-11-14 16:11:28 GMT 56.455856 1.243453 37,000 244 451 0
2019-11-14 16:11:25 GMT 56.461674 1.264544 37,000 244 451 64
2019-11-14 16:11:19 GMT 56.464371 1.274414 37,000 244 451 64
2019-11-14 16:11:16 GMT 56.469681 1.293640 37,000 244 450 0
2019-11-14 16:11:10 GMT 56.472427 1.303596 37,000 244 450 0
2019-11-14 16:11:07 GMT 56.474945 1.312533 37,000 244 450 0
2019-11-14 16:11:04 GMT 56.479271 1.327715 37,000 242 450 0
2019-11-14 16:11:00 GMT 56.482178 1.337336 37,000 241 450 0
2019-11-14 16:10:57 GMT 56.484695 1.345409 37,000 241 450 0
2019-11-14 16:10:54 GMT 56.488022 1.355524 37,000 239 449 -64
2019-11-14 16:10:51 GMT 56.491196 1.364885 37,000 238 449 -64
2019-11-14 16:10:48 GMT 56.495285 1.376209 37,000 236 449 -64
2019-11-14 16:10:45 GMT 56.498356 1.384277 37,000 235 449 0
2019-11-14 16:10:42 GMT 56.503803 1.398010 37,000 234 449 0
2019-11-14 16:10:38 GMT 56.507446 1.406999 37,000 234 449 0
2019-11-14 16:10:35 GMT 56.511475 1.416820 37,000 234 448 0
2019-11-14 16:10:32 GMT 56.518375 1.433544 37,000 234 448 0
2019-11-14 16:10:25 GMT 56.523354 1.445646 37,000 234 448 0
2019-11-14 16:10:22 GMT 56.526985 1.454573 37,000 234 448 0
2019-11-14 16:10:18 GMT 56.532852 1.468839 37,000 234 449 0
2019-11-14 16:10:14 GMT 56.537415 1.479979 37,000 234 449 0
2019-11-14 16:10:11 GMT 56.540485 1.487446 37,000 234 449 0
2019-11-14 16:10:07 GMT 56.545395 1.499384 37,000 234 448 0
2019-11-14 16:10:02 GMT 56.557896 1.529760 37,000 234 449 0
2019-11-14 16:09:57 GMT 56.562332 1.540500 37,000 234 450 0
2019-11-14 16:09:54 GMT 56.562332 1.540500 37,000 234 450 0
2019-11-14 16:09:47 GMT 56.570206 1.559642 37,000 234 450 0
2019-11-14 16:09:44 GMT 56.574749 1.570787 37,000 234 449 -64
2019-11-14 16:09:41 GMT 56.577915 1.578426 37,000 234 449 -64
2019-11-14 16:09:37 GMT 56.582989 1.590958 37,000 234 449 0
2019-11-14 16:09:33 GMT 56.587364 1.601601 37,000 234 449 0
2019-11-14 16:09:30 GMT 56.591785 1.612415 37,000 234 449 0
2019-11-14 16:09:27 GMT 56.595043 1.620306 37,000 234 449 0
2019-11-14 16:09:23 GMT 56.600464 1.633615 37,000 234 449 0
2019-11-14 16:09:20 GMT 56.603989 1.642284 37,000 234 450 0
2019-11-14 16:09:16 GMT 56.608841 1.654129 37,000 234 450 0
2019-11-14 16:09:13 GMT 56.611992 1.661859 37,000 234 450 0
2019-11-14 16:09:09 GMT 56.617111 1.674440 37,000 234 450 0
2019-11-14 16:09:06 GMT 56.620323 1.682237 37,000 234 449 0
2019-11-14 16:09:03 GMT 56.630379 1.707045 37,000 234 449 0
2019-11-14 16:08:59 GMT 56.630379 1.707045 37,000 234 449 0
2019-11-14 16:08:56 GMT 56.632874 1.713181 37,000 234 449 0
2019-11-14 16:08:52 GMT 56.637920 1.725651 37,000 234 449 0
2019-11-14 16:08:49 GMT 56.641689 1.734954 37,000 234 449 0
2019-11-14 16:08:46 GMT 56.645370 1.744080 37,000 234 449 0
2019-11-14 16:08:42 GMT 56.649651 1.754712 37,000 234 449 0
2019-11-14 16:08:39 GMT 56.653793 1.764989 37,000 234 449 0
2019-11-14 16:08:36 GMT 56.657238 1.773583 37,000 234 448 0
2019-11-14 16:08:33 GMT 56.661659 1.784570 37,000 234 448 0
2019-11-14 16:08:29 GMT 56.666382 1.796350 37,000 234 448 -64
2019-11-14 16:08:26 GMT 56.669903 1.805213 37,000 234 448 -64
2019-11-14 16:08:22 GMT 56.674370 1.816288 37,000 234 448 64
2019-11-14 16:08:19 GMT 56.678558 1.826735 37,000 235 448 64
2019-11-14 16:08:16 GMT 56.682144 1.835780 37,000 235 448 0
2019-11-14 16:08:12 GMT 56.686478 1.846647 37,000 235 448 0
2019-11-14 16:08:09 GMT 56.691010 1.857891 37,000 235 448 0
2019-11-14 16:08:05 GMT 56.694618 1.867056 37,000 235 448 0
2019-11-14 16:08:02 GMT 56.698204 1.876093 37,000 235 448 0
2019-11-14 16:07:59 GMT 56.703003 1.888018 37,000 235 447 0
2019-11-14 16:07:56 GMT 56.707031 1.898060 37,000 234 448 64
2019-11-14 16:07:53 GMT 56.710510 1.906815 37,000 234 448 64
2019-11-14 16:07:49 GMT 56.715363 1.918917 37,000 234 446 -64
2019-11-14 16:07:46 GMT 56.718979 1.927843 37,000 234 448 0
2019-11-14 16:07:42 GMT 56.723373 1.938829 37,000 234 447 -64
2019-11-14 16:07:39 GMT 56.727676 1.949472 37,000 234 447 -64
2019-11-14 16:07:35 GMT 56.731384 1.958656 37,000 234 447 -64
2019-11-14 16:07:29 GMT 56.740009 1.980197 37,000 234 446 -64
2019-11-14 16:07:25 GMT 56.744019 1.990156 37,000 234 446 0
2019-11-14 16:07:19 GMT 56.751709 2.009211 37,000 234 445 0
2019-11-14 16:07:15 GMT 56.756104 2.020197 37,000 234 445 0
2019-11-14 16:07:11 GMT 56.760632 2.031496 37,000 234 445 64
2019-11-14 16:07:08 GMT 56.768784 2.051783 37,000 234 445 0
2019-11-14 16:07:05 GMT 56.768784 2.051783 37,000 234 445 -64
2019-11-14 16:06:59 GMT 56.777390 2.073315 37,000 234 443 0
2019-11-14 16:06:55 GMT 56.789307 2.103262 37,025 234 438 64
2019-11-14 16:06:48 GMT 56.789307 2.103262 37,000 235 432 0
2019-11-14 16:06:44 GMT 56.792938 2.112299 37,000 234 438 64
2019-11-14 16:06:40 GMT 56.798290 2.125677 37,000 235 432 0
2019-11-14 16:06:37 GMT 56.801273 2.133208 37,000 235 432 0
2019-11-14 16:06:32 GMT 56.807743 2.149422 37,000 235 434 0
2019-11-14 16:06:27 GMT 56.813747 2.164484 37,000 235 432 0
2019-11-14 16:06:24 GMT 56.816635 2.171749 37,000 235 432 0
2019-11-14 16:06:21 GMT 56.820591 2.181672 37,000 235 432 0
2019-11-14 16:06:18 GMT 56.824493 2.191515 37,000 235 432 0
2019-11-14 16:06:15 GMT 56.828506 2.201607 37,000 235 431 0
2019-11-14 16:06:08 GMT 56.835938 2.220354 37,000 235 431 0
2019-11-14 16:06:04 GMT 56.840839 2.232705 37,000 235 431 0
2019-11-14 16:06:00 GMT 56.849396 2.254343 37,000 235 431 0
2019-11-14 16:05:52 GMT 56.859741 2.280521 37,000 235 432 0
2019-11-14 16:05:48 GMT 56.859741 2.280521 37,000 235 432 0
2019-11-14 16:05:41 GMT 56.867386 2.299919 37,000 235 432 0
2019-11-14 16:05:38 GMT 56.872009 2.311592 37,000 235 432 0
2019-11-14 16:05:31 GMT 56.879108 2.329722 37,000 235 431 0
2019-11-14 16:05:27 GMT 56.883682 2.341290 37,000 235 431 0
2019-11-14 16:05:23 GMT 56.888031 2.352276 37,000 235 431 0
2019-11-14 16:05:20 GMT 56.892002 2.362415 37,000 235 431 0
2019-11-14 16:05:14 GMT 56.899078 2.380312 37,000 235 431 0
2019-11-14 16:05:09 GMT 56.903828 2.392362 37,000 235 431 0
2019-11-14 16:05:03 GMT 56.911041 2.410613 37,000 235 431 0
2019-11-14 16:05:00 GMT 56.918839 2.430468 37,000 235 432 0
2019-11-14 16:04:54 GMT 56.922588 2.440028 37,000 235 432 -64
2019-11-14 16:04:48 GMT 56.930733 2.460583 37,000 235 432 0
2019-11-14 16:04:41 GMT 56.937717 2.478303 37,000 235 432 0
2019-11-14 16:04:37 GMT 56.941299 2.487429 37,000 235 432 0
2019-11-14 16:04:33 GMT 56.946327 2.500187 37,000 235 432 0
2019-11-14 16:04:29 GMT 56.951172 2.512502 37,000 235 432 0
2019-11-14 16:04:26 GMT 56.955219 2.522780 37,000 235 432 0
2019-11-14 16:04:23 GMT 56.958527 2.531285 37,000 235 432 0
2019-11-14 16:04:19 GMT 56.962574 2.541474 37,000 235 432 64
2019-11-14 16:04:10 GMT 56.976913 2.577977 37,000 235 432 0
2019-11-14 16:04:07 GMT 56.982101 2.591228 37,000 235 432 0
2019-11-14 16:04:02 GMT 56.982101 2.591228 37,000 235 432 64
2019-11-14 16:03:57 GMT 56.988464 2.607365 37,000 235 432 0
2019-11-14 16:03:52 GMT 56.994232 2.622100 37,000 235 432 0
2019-11-14 16:03:49 GMT 56.998047 2.631934 37,000 235 431 0
2019-11-14 16:03:43 GMT 57.006195 2.652844 37,000 235 432 64
2019-11-14 16:03:39 GMT 57.017551 2.681904 37,000 235 431 0
2019-11-14 16:03:32 GMT 57.017551 2.681904 37,000 235 431 0
2019-11-14 16:03:28 GMT 57.021835 2.692891 37,000 235 432 0
2019-11-14 16:03:22 GMT 57.029053 2.711408 37,000 235 431 0
2019-11-14 16:03:18 GMT 57.033707 2.723369 37,000 235 432 0
2019-11-14 16:03:12 GMT 57.040829 2.741798 37,000 235 431 64
2019-11-14 16:03:08 GMT 57.044952 2.752419 37,000 235 431 0
2019-11-14 16:03:05 GMT 57.048466 2.761467 37,000 235 431 0
2019-11-14 16:02:59 GMT 57.055958 2.780781 37,000 235 432 0
2019-11-14 16:02:56 GMT 57.059078 2.788755 37,000 235 432 0
2019-11-14 16:02:52 GMT 57.063812 2.800999 37,000 235 431 0
2019-11-14 16:02:48 GMT 57.068062 2.812057 37,000 235 431 0
2019-11-14 16:02:42 GMT 57.075439 2.831039 37,000 235 431 0
2019-11-14 16:02:37 GMT 57.080257 2.843510 37,000 235 432 0
2019-11-14 16:02:31 GMT 57.087196 2.861495 37,000 235 431 0
2019-11-14 16:02:28 GMT 57.091526 2.872659 37,000 235 431 0
2019-11-14 16:02:21 GMT 57.099060 2.892151 37,000 235 431 0
2019-11-14 16:02:18 GMT 57.110413 2.921505 37,000 235 431 0
2019-11-14 16:02:12 GMT 57.110413 2.921505 37,000 235 431 -64
2019-11-14 16:02:09 GMT 57.113800 2.930260 37,000 235 431 0
2019-11-14 16:01:57 GMT 57.126579 2.963385 37,000 235 431 0
2019-11-14 16:01:51 GMT 57.134079 2.982960 37,000 235 431 64
2019-11-14 16:01:48 GMT 57.141289 3.001571 37,000 235 432 0
2019-11-14 16:01:38 GMT 57.148830 3.021152 37,000 235 432 0
2019-11-14 16:01:31 GMT 57.160583 3.051796 37,000 235 431 -64
2019-11-14 16:01:18 GMT 57.172256 3.082266 37,000 235 432 64
2019-11-14 16:01:10 GMT 57.181370 3.106118 37,000 235 432 0
2019-11-14 16:01:07 GMT 57.183929 3.112907 37,000 235 432 -64
2019-11-14 16:00:58 GMT 57.195198 3.142444 37,000 235 432 0
2019-11-14 16:00:48 GMT 57.206818 3.172989 37,000 235 432 0
2019-11-14 16:00:38 GMT 57.218567 3.203755 37,000 235 432 -64
2019-11-14 16:00:30 GMT 57.226730 3.225260 37,000 235 432 0
2019-11-14 16:00:27 GMT 57.230850 3.236074 37,000 235 432 64
2019-11-14 16:00:20 GMT 57.238350 3.255763 37,000 235 432 64
2019-11-14 16:00:16 GMT 57.243145 3.268344 37,000 235 432 64
2019-11-14 16:00:10 GMT 57.249847 3.286028 37,000 235 432 0
2019-11-14 16:00:06 GMT 57.254242 3.297615 37,000 235 432 0
2019-11-14 15:59:55 GMT 57.267380 3.332205 37,000 236 433 -64
2019-11-14 15:59:49 GMT 57.273636 3.348704 37,000 236 433 0
2019-11-14 15:59:46 GMT 57.277679 3.359499 37,000 236 433 64
2019-11-14 15:59:36 GMT 57.288906 3.389105 37,000 235 432 0
2019-11-14 15:59:25 GMT 57.300888 3.420696 37,000 235 432 0
2019-11-14 15:59:15 GMT 57.313766 3.454757 37,000 235 432 0
2019-11-14 15:59:09 GMT 57.319447 3.469731 37,000 235 432 0
2019-11-14 15:58:59 GMT 57.330963 3.500175 37,000 235 432 0
2019-11-14 15:58:49 GMT 57.342815 3.531573 37,000 236 432 0
2019-11-14 15:58:46 GMT 57.345795 3.539458 37,000 236 432 0
2019-11-14 15:58:35 GMT 57.358269 3.572683 37,000 236 431 0
2019-11-14 15:58:23 GMT 57.371769 3.608743 37,000 236 432 0
2019-11-14 15:58:18 GMT 57.378147 3.625665 37,000 236 431 0
2019-11-14 15:58:08 GMT 57.388596 3.653727 37,000 236 432 0
2019-11-14 15:58:04 GMT 57.393372 3.666510 37,000 236 432 0
2019-11-14 15:57:59 GMT 57.400085 3.684454 37,000 236 432 0
2019-11-14 15:57:56 GMT 57.403332 3.693178 37,000 236 432 0
2019-11-14 15:57:48 GMT 57.411713 3.715682 37,000 236 432 0
2019-11-14 15:57:37 GMT 57.423706 3.748055 37,000 236 432 0
2019-11-14 15:57:12 GMT 57.451794 3.823862 37,000 236 431 0
2019-11-14 15:56:53 GMT 57.473392 3.882338 37,000 236 431 0
2019-11-14 15:56:46 GMT 57.481167 3.903336 37,000 236 430 0
2019-11-14 15:56:33 GMT 57.497040 3.946238 37,000 236 430 0
2019-11-14 15:56:26 GMT 57.503586 3.964005 37,000 236 430 0
2019-11-14 15:56:17 GMT 57.514114 3.992500 37,000 236 430 0
2019-11-14 15:56:04 GMT 57.527985 4.030094 37,000 236 429 -64
2019-11-14 15:55:57 GMT 57.536564 4.053335 37,000 236 429 0
2019-11-14 15:55:47 GMT 57.547970 4.084079 37,000 236 429 64
2019-11-14 15:55:36 GMT 57.559525 4.115152 37,000 236 429 0
2019-11-14 15:55:26 GMT 57.570831 4.145451 37,000 236 429 -64
2019-11-14 15:55:22 GMT 57.576324 4.160299 37,000 236 429 0
2019-11-14 15:55:11 GMT 57.587677 4.190855 37,000 236 428 0
2019-11-14 15:55:02 GMT 57.598663 4.220810 37,000 236 427 64
2019-11-14 15:54:51 GMT 57.610302 4.252949 37,000 237 427 0
2019-11-14 15:54:41 GMT 57.621094 4.283724 37,000 238 428 0
2019-11-14 15:54:31 GMT 57.631668 4.314280 37,000 238 428 0
2019-11-14 15:54:20 GMT 57.643539 4.348548 37,000 238 428 0
2019-11-14 15:54:11 GMT 57.653183 4.376335 37,000 238 428 0
2019-11-14 15:53:59 GMT 57.666862 4.415618 37,000 238 428 0
2019-11-14 15:53:51 GMT 57.675110 4.439507 37,000 238 428 0
2019-11-14 15:53:31 GMT 57.696304 4.501047 37,000 238 429 0
2019-11-14 15:53:20 GMT 57.708252 4.535637 37,000 238 428 0
2019-11-14 15:53:11 GMT 57.717957 4.563875 37,000 238 427 0
2019-11-14 15:53:01 GMT 57.728683 4.595215 37,000 238 428 0
2019-11-14 15:52:50 GMT 57.739998 4.628174 37,000 238 427 0
2019-11-14 15:52:40 GMT 57.750378 4.658295 37,000 238 427 0
2019-11-14 15:52:31 GMT 57.761490 4.690631 37,000 238 427 0
2019-11-14 15:52:18 GMT 57.773712 4.726425 37,000 238 428 0
2019-11-14 15:52:10 GMT 57.782173 4.751495 37,000 238 427 -64
2019-11-14 15:52:00 GMT 57.793159 4.783813 37,000 238 427 64
2019-11-14 15:51:48 GMT 57.806053 4.822083 37,000 238 427 -64
2019-11-14 15:51:39 GMT 57.815273 4.849274 37,000 238 427 0
2019-11-14 15:51:29 GMT 57.825394 4.879259 37,000 238 427 0
2019-11-14 15:51:07 GMT 57.849117 4.949158 37,000 238 427 0
2019-11-14 15:51:00 GMT 57.857941 4.975212 37,000 238 427 0
2019-11-14 15:50:49 GMT 57.868156 5.005554 37,000 238 427 0
2019-11-14 15:50:25 GMT 57.893246 5.079987 37,000 238 426 0
2019-11-14 15:50:18 GMT 57.901161 5.103516 37,000 238 426 64
2019-11-14 15:50:08 GMT 57.910721 5.131944 37,000 238 426 -64
2019-11-14 15:49:59 GMT 57.921131 5.162842 37,000 238 426 0
2019-11-14 15:49:48 GMT 57.932785 5.197596 37,000 238 426 0
2019-11-14 15:49:37 GMT 57.943104 5.228577 37,000 239 426 64
2019-11-14 15:49:28 GMT 57.952606 5.257135 37,000 239 426 0
2019-11-14 15:49:18 GMT 57.963318 5.289385 37,000 238 427 0
2019-11-14 15:49:08 GMT 57.973923 5.321320 37,000 238 428 0
2019-11-14 15:48:58 GMT 57.984116 5.352081 37,000 239 426 -64
2019-11-14 15:48:48 GMT 57.994637 5.383759 37,000 239 426 64
2019-11-14 15:48:37 GMT 58.006275 5.418915 37,000 238 427 -64
2019-11-14 15:48:28 GMT 58.015820 5.447571 37,000 239 426 -64
2019-11-14 15:48:17 GMT 58.026718 5.480494 37,000 238 427 0
2019-11-14 15:48:07 GMT 58.037247 5.512124 37,000 238 426 0
2019-11-14 15:47:57 GMT 58.047939 5.544342 37,000 239 426 0
2019-11-14 15:47:47 GMT 58.058167 5.575296 37,000 239 426 -64
2019-11-14 15:47:43 GMT 58.062046 5.587006 37,000 239 427 64
2019-11-14 15:47:37 GMT 58.068562 5.606781 37,000 239 427 0
2019-11-14 15:47:34 GMT 58.071991 5.617203 37,000 239 427 0
2019-11-14 15:47:27 GMT 58.079502 5.640015 37,000 239 427 0
2019-11-14 15:47:23 GMT 58.082714 5.649902 37,000 239 427 0
2019-11-14 15:47:17 GMT 58.089661 5.671072 37,000 239 427 0
2019-11-14 15:47:13 GMT 58.093277 5.682058 37,000 239 427 0
2019-11-14 15:47:07 GMT 58.100220 5.703369 37,000 239 427 0
2019-11-14 15:47:03 GMT 58.105179 5.718650 37,000 239 427 0
2019-11-14 15:46:57 GMT 58.110260 5.734332 37,000 239 427 0
2019-11-14 15:46:53 GMT 58.114288 5.746824 37,000 239 427 0
2019-11-14 15:46:47 GMT 58.120701 5.766724 37,000 239 426 0
2019-11-14 15:46:43 GMT 58.124752 5.779175 37,000 239 426 -64
2019-11-14 15:46:37 GMT 58.131042 5.798566 37,000 239 427 0
2019-11-14 15:46:33 GMT 58.134995 5.810669 37,000 239 427 0
2019-11-14 15:46:27 GMT 58.141891 5.831702 37,000 239 427 0
2019-11-14 15:46:22 GMT 58.152466 5.864041 37,000 239 425 64
2019-11-14 15:46:16 GMT 58.152466 5.864041 37,000 239 427 0
2019-11-14 15:46:12 GMT 58.156403 5.876091 37,000 239 427 0
2019-11-14 15:46:06 GMT 58.163177 5.896912 37,000 239 425 64
2019-11-14 15:46:03 GMT 58.166695 5.907623 37,000 239 425 64
2019-11-14 15:45:56 GMT 58.174210 5.930668 37,000 239 425 0
2019-11-14 15:45:51 GMT 58.178242 5.943054 37,000 239 425 0
2019-11-14 15:45:45 GMT 58.184246 5.961548 37,000 239 424 0
2019-11-14 15:45:42 GMT 58.187622 5.971955 37,000 239 424 -64
2019-11-14 15:45:36 GMT 58.193939 5.991536 37,000 239 424 0
2019-11-14 15:45:31 GMT 58.199112 6.007572 37,000 239 424 0
2019-11-14 15:45:25 GMT 58.208176 6.035836 37,000 239 424 0
2019-11-14 15:45:22 GMT 58.216087 6.060516 37,000 239 421 64
2019-11-14 15:45:14 GMT 58.218742 6.068848 37,000 239 423 -64
2019-11-14 15:45:06 GMT 58.224655 6.087223 37,000 239 424 64
2019-11-14 15:45:02 GMT 58.228889 6.100433 37,000 239 424 64
2019-11-14 15:44:56 GMT 58.234818 6.118853 37,000 239 424 0
2019-11-14 15:44:51 GMT 58.239410 6.133209 37,000 239 423 0
2019-11-14 15:44:46 GMT 58.245438 6.152078 37,000 239 423 0
2019-11-14 15:44:41 GMT 58.249325 6.164246 37,000 239 423 0
2019-11-14 15:44:35 GMT 58.259995 6.197529 37,000 239 422 -64
2019-11-14 15:44:31 GMT 58.259995 6.197529 37,000 239 422 -64
2019-11-14 15:44:25 GMT 58.266178 6.216797 37,000 239 422 -64
2019-11-14 15:44:20 GMT 58.278625 6.255473 37,000 239 421 64
2019-11-14 15:44:13 GMT 58.278625 6.255473 37,000 239 421 64
2019-11-14 15:44:10 GMT 58.280548 6.261587 37,000 239 421 64
2019-11-14 15:44:05 GMT 58.286407 6.279838 37,000 239 421 0
2019-11-14 15:44:00 GMT 58.291176 6.294800 37,000 239 421 0
2019-11-14 15:43:54 GMT 58.296570 6.311557 37,000 239 421 -64
2019-11-14 15:43:50 GMT 58.301102 6.325733 37,000 239 421 -64
2019-11-14 15:43:45 GMT 58.306412 6.342212 37,000 239 421 64
2019-11-14 15:43:40 GMT 58.311100 6.356873 37,000 239 421 0
2019-11-14 15:43:34 GMT 58.317078 6.375703 37,000 239 420 0
2019-11-14 15:43:29 GMT 58.321793 6.390499 37,000 239 420 0
2019-11-14 15:43:24 GMT 58.326920 6.406624 37,000 239 420 0
2019-11-14 15:43:20 GMT 58.331631 6.421326 37,000 239 420 0
2019-11-14 15:43:15 GMT 58.337635 6.440369 37,000 239 421 0
2019-11-14 15:43:09 GMT 58.341751 6.453316 37,000 239 421 64
2019-11-14 15:43:04 GMT 58.347504 6.471497 37,000 239 421 0
2019-11-14 15:42:59 GMT 58.352112 6.486053 37,000 240 421 0
2019-11-14 15:42:54 GMT 58.357281 6.502533 37,000 240 422 -64
2019-11-14 15:42:48 GMT 58.362961 6.520477 37,000 240 422 0
2019-11-14 15:42:44 GMT 58.367290 6.534210 37,000 240 422 0
2019-11-14 15:42:39 GMT 58.372131 6.549683 37,000 240 422 0
2019-11-14 15:42:34 GMT 58.377342 6.566162 37,000 240 422 64
2019-11-14 15:42:29 GMT 58.382233 6.581818 37,000 240 422 0
2019-11-14 15:42:24 GMT 58.387398 6.598297 37,000 240 422 -64
2019-11-14 15:42:19 GMT 58.392700 6.615187 37,000 240 422 -64
2019-11-14 15:42:13 GMT 58.398697 6.634325 37,000 240 422 0
2019-11-14 15:42:09 GMT 58.402634 6.646817 37,000 240 422 0
2019-11-14 15:42:04 GMT 58.407623 6.662676 37,000 240 422 64
2019-11-14 15:41:59 GMT 58.413563 6.681702 37,000 240 422 0
2019-11-14 15:41:53 GMT 58.418243 6.696610 37,000 240 422 0
2019-11-14 15:41:48 GMT 58.423370 6.712912 37,000 240 422 0
2019-11-14 15:41:43 GMT 58.428085 6.727886 37,000 240 422 0
2019-11-14 15:41:38 GMT 58.433487 6.745162 37,000 240 422 -64
2019-11-14 15:41:32 GMT 58.439072 6.762882 37,000 240 422 -64
2019-11-14 15:41:28 GMT 58.444008 6.778564 37,000 240 422 64
2019-11-14 15:41:23 GMT 58.448570 6.793121 37,000 240 422 64
2019-11-14 15:41:17 GMT 58.454315 6.811435 37,000 240 421 64
2019-11-14 15:41:13 GMT 58.464386 6.843685 37,000 240 421 64
2019-11-14 15:41:07 GMT 58.464386 6.843685 37,000 240 422 64
2019-11-14 15:41:02 GMT 58.468864 6.858032 37,000 240 422 0
2019-11-14 15:40:55 GMT 58.475967 6.880897 37,000 240 422 -128
2019-11-14 15:40:52 GMT 58.478687 6.889618 37,000 240 422 -64
2019-11-14 15:40:46 GMT 58.484985 6.909869 37,000 240 421 0
2019-11-14 15:40:43 GMT 58.488464 6.921032 37,000 240 421 0
2019-11-14 15:40:35 GMT 58.496246 6.946283 37,000 240 421 0
2019-11-14 15:40:32 GMT 58.498940 6.954987 37,000 240 421 0
2019-11-14 15:40:25 GMT 58.505585 6.976407 37,000 240 421 0
2019-11-14 15:40:21 GMT 58.509567 6.989254 37,000 240 421 0
2019-11-14 15:40:15 GMT 58.515564 7.008657 37,000 240 421 64
2019-11-14 15:40:12 GMT 58.519096 7.019989 37,000 240 421 64
2019-11-14 15:40:07 GMT 58.523895 7.035503 37,000 240 420 0
2019-11-14 15:40:02 GMT 58.528404 7.050018 37,000 240 420 0
2019-11-14 15:39:56 GMT 58.534084 7.068512 37,000 240 421 0
2019-11-14 15:39:52 GMT 58.538681 7.083435 37,000 240 421 0
2019-11-14 15:39:47 GMT 58.544266 7.101509 37,000 240 421 0
2019-11-14 15:39:42 GMT 58.548332 7.114746 37,000 240 421 0
2019-11-14 15:39:36 GMT 58.553963 7.133148 37,000 240 421 0
2019-11-14 15:39:31 GMT 58.559189 7.149973 37,000 240 421 -64
2019-11-14 15:39:26 GMT 58.564407 7.166984 37,000 240 421 -64
2019-11-14 15:39:22 GMT 58.568207 7.179382 37,000 240 421 64
2019-11-14 15:39:16 GMT 58.574402 7.199432 37,000 240 421 64
2019-11-14 15:39:12 GMT 58.578075 7.211426 37,000 240 421 0
2019-11-14 15:39:05 GMT 58.584873 7.233490 37,000 240 421 0
2019-11-14 15:39:01 GMT 58.588577 7.245572 37,000 240 421 0
2019-11-14 15:38:55 GMT 58.594929 7.266266 37,000 240 422 0
2019-11-14 15:38:51 GMT 58.598145 7.276848 37,000 240 422 -64
2019-11-14 15:38:46 GMT 58.604141 7.296251 37,000 240 422 -64
2019-11-14 15:38:41 GMT 58.608170 7.309452 37,000 240 422 -64
2019-11-14 15:38:38 GMT 58.612564 7.323894 37,000 240 422 -64
2019-11-14 15:38:32 GMT 58.624397 7.362396 37,000 240 423 0
2019-11-14 15:38:25 GMT 58.624397 7.362396 37,000 240 423 0
2019-11-14 15:38:21 GMT 58.628632 7.376345 36,925 240 422 0
2019-11-14 15:38:18 GMT 58.631145 7.384552 37,000 240 422 -64
2019-11-14 15:38:15 GMT 58.634308 7.394951 37,000 240 422 0
2019-11-14 15:38:10 GMT 58.638641 7.409180 37,000 240 422 64
2019-11-14 15:38:05 GMT 58.647953 7.439850 36,925 240 422 64
2019-11-14 15:38:01 GMT 58.647953 7.439850 36,925 240 422 64
2019-11-14 15:37:57 GMT 58.651352 7.451019 37,000 240 422 320
2019-11-14 15:37:54 GMT 58.654144 7.460358 37,000 240 421 576
2019-11-14 15:37:51 GMT 58.657700 7.472032 36,925 240 421 1024
2019-11-14 15:37:48 GMT 58.661407 7.484161 36,875 240 421 1024
2019-11-14 15:37:40 GMT 58.669235 7.510130 36,750 240 420 896
2019-11-14 15:37:37 GMT 58.671368 7.517120 36,725 240 420 832
2019-11-14 15:37:34 GMT 58.673859 7.525369 36,675 240 420 896
2019-11-14 15:37:31 GMT 58.678074 7.539368 36,350 240 419 1088
2019-11-14 15:37:27 GMT 58.680958 7.548981 36,550 240 420 1152
2019-11-14 15:37:24 GMT 58.683937 7.558777 36,500 240 419 1088
2019-11-14 15:37:20 GMT 58.687893 7.571960 36,425 240 419 1088
2019-11-14 15:37:16 GMT 58.691254 7.582959 36,375 240 419 960
2019-11-14 15:37:13 GMT 58.694183 7.592616 36,325 240 419 768
2019-11-14 15:37:09 GMT 58.703934 7.624955 36,225 240 418 832
2019-11-14 15:37:03 GMT 58.707733 7.637624 36,125 240 418 1024
2019-11-14 15:37:00 GMT 58.707733 7.637624 36,125 240 418 1024
2019-11-14 15:36:53 GMT 58.713501 7.656762 36,025 240 417 1088
2019-11-14 15:36:49 GMT 58.717667 7.670583 35,950 240 417 1152
2019-11-14 15:36:44 GMT 58.722996 7.688232 35,825 240 417 1408
2019-11-14 15:36:39 GMT 58.727737 7.704163 35,700 241 418 1536
2019-11-14 15:36:36 GMT 58.730530 7.713377 35,625 241 418 1536
2019-11-14 15:36:33 GMT 58.732956 7.721466 35,575 241 418 1536
2019-11-14 15:36:29 GMT 58.737614 7.737030 35,450 241 418 1536
2019-11-14 15:36:23 GMT 58.742920 7.754791 35,300 241 419 1664
2019-11-14 15:36:18 GMT 58.747787 7.770967 35,150 241 421 1600
2019-11-14 15:36:13 GMT 58.752602 7.787018 35,075 241 421 1472
2019-11-14 15:36:08 GMT 58.757446 7.803305 34,900 241 421 1472
2019-11-14 15:36:05 GMT 58.765450 7.830231 34,775 241 421 1408
2019-11-14 15:36:00 GMT 58.770035 7.845656 34,575 241 422 1728
2019-11-14 15:35:55 GMT 58.770035 7.845656 34,575 241 422 1728
2019-11-14 15:35:52 GMT 58.772385 7.853668 34,500 241 422 1728
2019-11-14 15:35:47 GMT 58.777771 7.871793 34,350 241 423 1344
2019-11-14 15:35:43 GMT 58.787376 7.904114 34,175 241 423 1600
2019-11-14 15:35:37 GMT 58.792171 7.920227 34,025 241 423 1472
2019-11-14 15:35:32 GMT 58.792171 7.920227 34,000 241 423 1600
2019-11-14 15:35:29 GMT 58.795990 7.933015 33,875 241 423 1792
2019-11-14 15:35:26 GMT 58.797619 7.938446 33,825 241 424 1856
2019-11-14 15:35:22 GMT 58.807571 7.971910 33,625 241 425 1536
2019-11-14 15:35:17 GMT 58.811737 7.985820 33,500 241 425 1536
2019-11-14 15:35:12 GMT 58.811737 7.985820 33,450 241 425 1728
2019-11-14 15:35:09 GMT 58.814758 7.996009 33,275 241 425 1664
2019-11-14 15:35:05 GMT 58.817917 8.006744 33,250 241 425 1600
2019-11-14 15:35:02 GMT 58.824432 8.028717 33,150 241 425 1472
2019-11-14 15:34:59 GMT 58.824432 8.028717 33,075 241 425 1408
2019-11-14 15:34:54 GMT 58.829365 8.045380 32,975 241 425 1280
2019-11-14 15:34:51 GMT 58.831833 8.053802 32,925 241 425 1280
2019-11-14 15:34:46 GMT 58.837837 8.074127 32,800 241 424 1408
2019-11-14 15:34:42 GMT 58.841331 8.085938 32,700 241 424 1600
2019-11-14 15:34:39 GMT 58.843800 8.094269 32,625 241 424 1664
2019-11-14 15:34:35 GMT 58.847672 8.107269 32,525 241 424 1536
2019-11-14 15:34:29 GMT 58.853714 8.127894 32,375 241 424 1408
2019-11-14 15:34:23 GMT 58.859112 8.146268 32,250 241 423 1280
2019-11-14 15:34:19 GMT 58.863537 8.161232 32,150 241 422 1536
2019-11-14 15:34:15 GMT 58.867447 8.174469 32,075 241 422 1664
2019-11-14 15:34:11 GMT 58.870892 8.186046 31,950 241 422 1600
2019-11-14 15:34:08 GMT 58.873352 8.194427 31,875 241 422 1664
2019-11-14 15:34:03 GMT 58.878662 8.212372 31,725 241 422 1856
2019-11-14 15:33:59 GMT 58.882996 8.227150 31,575 241 422 1920
2019-11-14 15:33:54 GMT 58.887634 8.242859 31,425 241 423 1920
2019-11-14 15:33:48 GMT 58.893051 8.261340 31,250 241 423 1792
2019-11-14 15:33:43 GMT 58.898209 8.278839 31,075 241 423 1792
2019-11-14 15:33:38 GMT 58.905853 8.304812 30,825 241 424 2048
2019-11-14 15:33:35 GMT 58.910065 8.319305 30,775 241 424 2112
2019-11-14 15:33:31 GMT 58.910065 8.319305 30,675 241 424 2240
2019-11-14 15:33:28 GMT 58.912720 8.328278 30,575 241 425 2176
2019-11-14 15:33:22 GMT 58.917984 8.346222 30,400 241 425 1408
2019-11-14 15:33:18 GMT 58.922096 8.360217 30,300 241 425 1472
2019-11-14 15:33:12 GMT 58.927277 8.377991 30,125 241 424 1472
2019-11-14 15:33:08 GMT 58.932247 8.394881 30,050 241 422 1280
2019-11-14 15:33:03 GMT 58.937134 8.411739 29,925 241 421 1536
2019-11-14 15:33:00 GMT 58.941742 8.427461 29,800 241 421 1600
2019-11-14 15:32:52 GMT 58.949379 8.453695 29,600 241 419 1344
2019-11-14 15:32:46 GMT 58.952499 8.464417 29,525 241 419 1408
2019-11-14 15:32:41 GMT 58.956802 8.479248 29,275 241 417 1408
2019-11-14 15:32:37 GMT 58.960922 8.493568 29,300 241 417 1408
2019-11-14 15:32:30 GMT 58.968231 8.518761 29,125 241 416 1472
2019-11-14 15:32:21 GMT 58.976006 8.545564 28,900 241 414 1408
2019-11-14 15:32:15 GMT 58.981522 8.564667 28,775 241 412 1408
2019-11-14 15:32:11 GMT 58.989304 8.591583 28,600 241 411 1664
2019-11-14 15:32:07 GMT 58.989304 8.591583 28,550 241 410 1600
2019-11-14 15:31:59 GMT 58.996582 8.616760 28,375 241 407 1088
2019-11-14 15:31:50 GMT 59.004868 8.645388 28,125 241 405 1728
2019-11-14 15:31:47 GMT 59.007755 8.655427 28,075 241 405 1664
2019-11-14 15:31:40 GMT 59.016907 8.687256 27,775 241 404 1856
2019-11-14 15:31:29 GMT 59.024780 8.714630 27,525 241 402 1792
2019-11-14 15:31:26 GMT 59.026199 8.719574 27,475 241 402 1792
2019-11-14 15:31:19 GMT 59.033077 8.743602 27,225 241 400 1920
2019-11-14 15:31:16 GMT 59.035591 8.752410 27,150 242 400 1920
2019-11-14 15:31:08 GMT 59.042953 8.778076 26,925 241 399 1984
2019-11-14 15:31:04 GMT 59.046021 8.788788 26,775 242 398 1856
2019-11-14 15:30:57 GMT 59.053749 8.815865 26,500 241 397 1856
2019-11-14 15:30:49 GMT 59.060497 8.839448 26,250 242 395 2048
2019-11-14 15:30:46 GMT 59.062176 8.845415 26,200 242 394 1984
2019-11-14 15:30:37 GMT 59.070145 8.873383 25,925 241 393 2112
2019-11-14 15:30:28 GMT 59.078796 8.903687 25,500 242 392 2176
2019-11-14 15:30:17 GMT 59.090973 8.946259 25,025 241 390 2304
2019-11-14 15:30:08 GMT 59.095367 8.961731 24,850 241 389 1984
2019-11-14 15:29:57 GMT 59.105282 8.996193 24,500 241 385 2176
2019-11-14 15:29:46 GMT 59.115189 9.032593 24,050 249 381 2240
2019-11-14 15:29:36 GMT 59.127136 9.094757 23,150 251 381 2304
2019-11-14 15:29:25 GMT 59.127136 9.094757 23,350 255 380 2368
2019-11-14 15:29:20 GMT 59.129257 9.111076 23,125 258 379 2304
2019-11-14 15:29:16 GMT 59.131023 9.128313 22,925 261 379 2432
2019-11-14 15:29:10 GMT 59.132401 9.144928 22,725 261 378 2304
2019-11-14 15:29:05 GMT 59.133911 9.163545 22,500 261 376 2368
2019-11-14 15:29:01 GMT 59.135239 9.179626 22,300 261 375 2560
2019-11-14 15:28:54 GMT 59.136978 9.200684 22,025 261 374 2496
2019-11-14 15:28:50 GMT 59.137985 9.213043 21,900 261 373 2432
2019-11-14 15:28:44 GMT 59.139450 9.231079 21,675 262 372 2560
2019-11-14 15:28:40 GMT 59.140686 9.246094 21,475 262 371 2560
2019-11-14 15:28:35 GMT 59.142334 9.266510 21,200 261 370 2624
2019-11-14 15:28:30 GMT 59.143433 9.279968 21,025 262 369 2624
2019-11-14 15:28:23 GMT 59.145126 9.301300 20,750 262 367 2624
2019-11-14 15:28:19 GMT 59.146179 9.314301 20,575 262 366 2688
2019-11-14 15:28:13 GMT 59.147690 9.333265 20,325 262 365 2816
2019-11-14 15:28:10 GMT 59.148716 9.346050 20,100 262 365 2816
2019-11-14 15:28:04 GMT 59.150532 9.368212 19,800 262 364 2816
2019-11-14 15:27:59 GMT 59.151463 9.379956 19,625 262 363 2816
2019-11-14 15:27:55 GMT 59.152485 9.393121 19,425 262 362 3008
2019-11-14 15:27:49 GMT 59.154068 9.413010 19,125 262 361 2880
2019-11-14 15:27:43 GMT 59.155605 9.432047 18,825 262 360 2944
2019-11-14 15:27:39 GMT 59.156628 9.444927 18,625 262 359 3072
2019-11-14 15:27:35 GMT 59.157623 9.457672 18,425 262 359 3200
2019-11-14 15:27:32 GMT 59.158539 9.469482 18,225 262 359 3200
2019-11-14 15:27:28 GMT 59.159237 9.478170 18,075 262 359 3136
2019-11-14 15:27:22 GMT 59.160782 9.497772 17,775 262 358 2944
2019-11-14 15:27:19 GMT 59.161751 9.509993 17,575 262 357 2944
2019-11-14 15:27:14 GMT 59.162727 9.522684 17,350 262 353 3136
2019-11-14 15:27:11 GMT 59.163620 9.533936 17,350 262 353 3136
2019-11-14 15:27:07 GMT 59.164448 9.544657 17,025 262 354 3072
2019-11-14 15:27:04 GMT 59.165268 9.555176 16,850 262 353 3136
2019-11-14 15:26:58 GMT 59.166779 9.574310 16,525 262 353 3072
2019-11-14 15:26:54 GMT 59.167664 9.586140 16,350 262 351 3008
2019-11-14 15:26:47 GMT 59.169243 9.606502 16,000 262 350 3328
2019-11-14 15:26:43 GMT 59.170223 9.619667 15,500 262 349 3200
2019-11-14 15:26:40 GMT 59.171082 9.630524 15,575 262 349 3136
2019-11-14 15:26:37 GMT 59.171677 9.638672 15,450 262 349 3072
2019-11-14 15:26:34 GMT 59.172550 9.649879 15,275 261 348 2944
2019-11-14 15:26:30 GMT 59.173325 9.659363 15,125 260 347 2816
2019-11-14 15:26:21 GMT 59.177078 9.692413 14,575 250 336 3136
2019-11-14 15:26:14 GMT 59.179951 9.711156 14,250 252 341 3072

Making use of Plane Finder data

You are free to use the raw flight data, aircraft information and images provided in this report for your own purposes provided the data is correctly attributed to Plane Finder. We ask that you please credit Plane Finder and link to planefinder.net in close proximity to the content.

Optionally one of the following logos (no smaller then 150x24px) can be used and must link to planefinder.net

Embedding the Plane Finder map

You are welcome to embed the Plane Finder playback map on your website to offer visitors a more interactive experience. We suggest using the following HTML code:

<iframe src="//planefinder.net/data/report/FR3227-EI-EML-7700-squawk-2019-11-14/map" width="800" height="600" seamless="seamless"></iframe>

Where our data comes from

Plane Finder has a global network of data feeds and antenna radars that receive data broadcast directly from aircraft. The primary technologies used are ADS-B and MLAT. We also show feeds from the FAA and a FLARM glider feed.

Click here to find out more about the Plane Finder network.

How we collect our data